sensor_id;sensor_type;location;lat;lon;timestamp;pressure;altitude;pressure_sealevel;temperature;humidity
57594;BME280;43423;46.510;6.686;2023-01-27T00:00:13;96319.88;;;-0.02;70.89
57594;BME280;43423;46.510;6.686;2023-01-27T00:02:59;96318.78;;;-0.04;70.11
57594;BME280;43423;46.510;6.686;2023-01-27T00:05:25;96315.72;;;-0.06;70.26
57594;BME280;43423;46.510;6.686;2023-01-27T00:07:51;96321.06;;;-0.03;70.69
57594;BME280;43423;46.510;6.686;2023-01-27T00:10:18;96320.31;;;-0.03;69.80
57594;BME280;43423;46.510;6.686;2023-01-27T00:12:45;96312.31;;;-0.10;70.54
57594;BME280;43423;46.510;6.686;2023-01-27T00:15:31;96304.94;;;-0.06;70.33
57594;BME280;43423;46.510;6.686;2023-01-27T00:17:57;96315.25;;;-0.01;70.89
57594;BME280;43423;46.510;6.686;2023-01-27T00:20:22;96307.25;;;-0.08;70.11
57594;BME280;43423;46.510;6.686;2023-01-27T00:23:13;96304.94;;;-0.06;70.68
57594;BME280;43423;46.510;6.686;2023-01-27T00:25:57;96298.69;;;-0.03;70.86
57594;BME280;43423;46.510;6.686;2023-01-27T00:28:25;96302.44;;;0.03;70.39
57594;BME280;43423;46.510;6.686;2023-01-27T00:30:51;96293.63;;;-0.01;70.40
57594;BME280;43423;46.510;6.686;2023-01-27T00:33:17;96296.81;;;-0.06;70.62
57594;BME280;43423;46.510;6.686;2023-01-27T00:35:49;96299.78;;;-0.01;71.16
57594;BME280;43423;46.510;6.686;2023-01-27T00:38:14;96292.94;;;-0.05;70.72
57594;BME280;43423;46.510;6.686;2023-01-27T00:40:40;96300.16;;;0.02;70.71
57594;BME280;43423;46.510;6.686;2023-01-27T00:43:25;96291.34;;;-0.03;70.78
57594;BME280;43423;46.510;6.686;2023-01-27T00:45:51;96297.88;;;0.00;71.11
57594;BME280;43423;46.510;6.686;2023-01-27T00:48:17;96300.75;;;-0.11;69.90
57594;BME280;43423;46.510;6.686;2023-01-27T00:50:42;96293.75;;;-0.08;70.65
57594;BME280;43423;46.510;6.686;2023-01-27T00:53:08;96294.03;;;-0.03;70.35
57594;BME280;43423;46.510;6.686;2023-01-27T00:55:33;96294.16;;;-0.10;70.61
57594;BME280;43423;46.510;6.686;2023-01-27T00:57:59;96290.34;;;-0.12;70.42
57594;BME280;43423;46.510;6.686;2023-01-27T01:00:24;96282.78;;;-0.21;70.84
57594;BME280;43423;46.510;6.686;2023-01-27T01:02:50;96270.44;;;-0.22;70.81
57594;BME280;43423;46.510;6.686;2023-01-27T01:05:15;96283.53;;;-0.20;71.32
57594;BME280;43423;46.510;6.686;2023-01-27T01:07:41;96275.72;;;-0.15;71.28
57594;BME280;43423;46.510;6.686;2023-01-27T01:10:06;96272.63;;;-0.13;71.04
57594;BME280;43423;46.510;6.686;2023-01-27T01:12:32;96272.84;;;-0.04;70.96
57594;BME280;43423;46.510;6.686;2023-01-27T01:14:57;96276.41;;;-0.11;70.73
57594;BME280;43423;46.510;6.686;2023-01-27T01:17:23;96271.09;;;-0.14;71.02
57594;BME280;43423;46.510;6.686;2023-01-27T01:19:48;96273.41;;;-0.16;70.92
57594;BME280;43423;46.510;6.686;2023-01-27T01:22:14;96258.38;;;-0.17;70.67
57594;BME280;43423;46.510;6.686;2023-01-27T01:24:40;96270.97;;;-0.07;71.23
57594;BME280;43423;46.510;6.686;2023-01-27T01:27:05;96275.72;;;-0.15;71.22
57594;BME280;43423;46.510;6.686;2023-01-27T01:29:31;96267.31;;;-0.20;71.23
57594;BME280;43423;46.510;6.686;2023-01-27T01:31:56;96263.31;;;-0.12;71.30
57594;BME280;43423;46.510;6.686;2023-01-27T01:34:22;96270.66;;;-0.13;70.86
57594;BME280;43423;46.510;6.686;2023-01-27T01:36:48;96268.84;;;-0.43;71.76
57594;BME280;43423;46.510;6.686;2023-01-27T01:39:13;96260.56;;;-0.32;72.28
57594;BME280;43423;46.510;6.686;2023-01-27T01:41:39;96264.50;;;-0.37;72.09
57594;BME280;43423;46.510;6.686;2023-01-27T01:44:24;96263.97;;;-0.28;71.86
57594;BME280;43423;46.510;6.686;2023-01-27T01:46:50;96254.47;;;-0.36;71.96
57594;BME280;43423;46.510;6.686;2023-01-27T01:49:17;96259.69;;;-0.25;72.02
57594;BME280;43423;46.510;6.686;2023-01-27T01:51:49;96255.75;;;-0.21;71.83
57594;BME280;43423;46.510;6.686;2023-01-27T01:54:22;96248.81;;;-0.22;71.92
57594;BME280;43423;46.510;6.686;2023-01-27T01:57:15;96251.94;;;-0.23;72.14
57594;BME280;43423;46.510;6.686;2023-01-27T01:59:58;96256.44;;;-0.17;71.64
57594;BME280;43423;46.510;6.686;2023-01-27T02:02:25;96248.88;;;-0.25;71.03
57594;BME280;43423;46.510;6.686;2023-01-27T02:04:55;96250.53;;;-0.32;71.79
57594;BME280;43423;46.510;6.686;2023-01-27T02:10:06;96244.94;;;-0.21;71.59
57594;BME280;43423;46.510;6.686;2023-01-27T02:12:32;96239.88;;;-0.19;71.18
57594;BME280;43423;46.510;6.686;2023-01-27T02:14:57;96241.00;;;-0.16;71.46
57594;BME280;43423;46.510;6.686;2023-01-27T02:17:23;96239.66;;;-0.28;71.79
57594;BME280;43423;46.510;6.686;2023-01-27T02:22:54;96241.78;;;-0.16;71.14
57594;BME280;43423;46.510;6.686;2023-01-27T02:25:27;96240.19;;;-0.13;71.00
57594;BME280;43423;46.510;6.686;2023-01-27T02:27:54;96238.53;;;-0.07;71.45
57594;BME280;43423;46.510;6.686;2023-01-27T02:30:19;96237.41;;;-0.10;71.02
57594;BME280;43423;46.510;6.686;2023-01-27T02:32:45;96239.59;;;-0.24;71.72
57594;BME280;43423;46.510;6.686;2023-01-27T02:35:14;96235.19;;;-0.15;71.28
57594;BME280;43423;46.510;6.686;2023-01-27T02:37:41;96218.81;;;-0.28;71.89
57594;BME280;43423;46.510;6.686;2023-01-27T02:40:08;96229.50;;;-0.20;71.66
57594;BME280;43423;46.510;6.686;2023-01-27T02:42:34;96227.13;;;-0.18;72.22
57594;BME280;43423;46.510;6.686;2023-01-27T02:45:00;96233.25;;;-0.14;72.04
57594;BME280;43423;46.510;6.686;2023-01-27T02:47:26;96228.28;;;-0.16;71.91
57594;BME280;43423;46.510;6.686;2023-01-27T02:49:51;96238.59;;;-0.11;72.25
57594;BME280;43423;46.510;6.686;2023-01-27T02:52:22;96239.41;;;-0.14;71.71
57594;BME280;43423;46.510;6.686;2023-01-27T02:54:47;96231.56;;;-0.08;71.89
57594;BME280;43423;46.510;6.686;2023-01-27T02:57:13;96232.06;;;-0.13;71.42
57594;BME280;43423;46.510;6.686;2023-01-27T02:59:38;96229.28;;;-0.10;71.31
57594;BME280;43423;46.510;6.686;2023-01-27T03:02:04;96220.38;;;-0.07;71.75
57594;BME280;43423;46.510;6.686;2023-01-27T03:04:29;96230.81;;;-0.09;70.96
57594;BME280;43423;46.510;6.686;2023-01-27T03:06:55;96223.34;;;-0.01;71.38
57594;BME280;43423;46.510;6.686;2023-01-27T03:09:21;96222.72;;;-0.09;71.60
57594;BME280;43423;46.510;6.686;2023-01-27T03:11:46;96223.97;;;-0.13;72.04
57594;BME280;43423;46.510;6.686;2023-01-27T03:14:30;96231.19;;;-0.07;72.14
57594;BME280;43423;46.510;6.686;2023-01-27T03:17:14;96221.91;;;-0.06;71.77
57594;BME280;43423;46.510;6.686;2023-01-27T03:19:58;96222.66;;;-0.05;71.58
57594;BME280;43423;46.510;6.686;2023-01-27T03:22:24;96222.59;;;-0.02;71.73
57594;BME280;43423;46.510;6.686;2023-01-27T03:24:50;96223.84;;;-0.06;71.88
57594;BME280;43423;46.510;6.686;2023-01-27T03:27:16;96222.19;;;0.00;71.51
57594;BME280;43423;46.510;6.686;2023-01-27T03:29:42;96216.97;;;-0.11;71.49
57594;BME280;43423;46.510;6.686;2023-01-27T03:32:23;96216.19;;;-0.11;71.63
57594;BME280;43423;46.510;6.686;2023-01-27T03:34:49;96228.53;;;-0.10;70.94
57594;BME280;43423;46.510;6.686;2023-01-27T03:37:15;96223.97;;;-0.13;71.20
57594;BME280;43423;46.510;6.686;2023-01-27T03:39:59;96222.72;;;-0.09;70.85
57594;BME280;43423;46.510;6.686;2023-01-27T03:42:43;96217.16;;;-0.21;71.48
57594;BME280;43423;46.510;6.686;2023-01-27T03:45:27;96219.56;;;-0.27;70.92
57594;BME280;43423;46.510;6.686;2023-01-27T03:48:12;96217.69;;;-0.30;71.89
57594;BME280;43423;46.510;6.686;2023-01-27T03:50:38;96213.41;;;-0.28;71.88
57594;BME280;43423;46.510;6.686;2023-01-27T03:53:08;96214.34;;;-0.38;71.35
57594;BME280;43423;46.510;6.686;2023-01-27T03:55:35;96214.94;;;-0.26;72.04
57594;BME280;43423;46.510;6.686;2023-01-27T03:58:02;96220.31;;;-0.26;71.66
57594;BME280;43423;46.510;6.686;2023-01-27T04:00:45;96224.31;;;-0.11;71.41
57594;BME280;43423;46.510;6.686;2023-01-27T04:03:12;96221.69;;;-0.15;71.16
57594;BME280;43423;46.510;6.686;2023-01-27T04:05:56;96220.16;;;-0.16;71.93
57594;BME280;43423;46.510;6.686;2023-01-27T04:08:43;96217.72;;;-0.10;70.62
57594;BME280;43423;46.510;6.686;2023-01-27T04:11:09;96221.84;;;-0.25;71.39
57594;BME280;43423;46.510;6.686;2023-01-27T04:13:53;96227.97;;;-0.45;71.03
57594;BME280;43423;46.510;6.686;2023-01-27T04:16:18;96237.50;;;-0.37;71.68
57594;BME280;43423;46.510;6.686;2023-01-27T04:18:45;96235.56;;;-0.36;71.74
57594;BME280;43423;46.510;6.686;2023-01-27T04:21:12;96221.69;;;-0.38;71.53
57594;BME280;43423;46.510;6.686;2023-01-27T04:23:38;96235.59;;;-0.40;71.69
57594;BME280;43423;46.510;6.686;2023-01-27T04:26:03;96225.94;;;-0.37;71.76
57594;BME280;43423;46.510;6.686;2023-01-27T04:28:29;96221.75;;;-0.42;71.60
57594;BME280;43423;46.510;6.686;2023-01-27T04:30:54;96219.69;;;-0.34;71.58
57594;BME280;43423;46.510;6.686;2023-01-27T04:33:20;96225.03;;;-0.31;70.98
57594;BME280;43423;46.510;6.686;2023-01-27T04:35:45;96224.63;;;-0.29;71.01
57594;BME280;43423;46.510;6.686;2023-01-27T04:38:11;96227.97;;;-0.21;71.30
57594;BME280;43423;46.510;6.686;2023-01-27T04:40:37;96231.44;;;-0.21;71.48
57594;BME280;43423;46.510;6.686;2023-01-27T04:43:03;96223.69;;;-0.42;71.01
57594;BME280;43423;46.510;6.686;2023-01-27T04:45:30;96222.34;;;-0.31;71.30
57594;BME280;43423;46.510;6.686;2023-01-27T04:47:56;96212.72;;;-0.32;71.22
57594;BME280;43423;46.510;6.686;2023-01-27T04:50:22;96217.97;;;-0.24;71.18
57594;BME280;43423;46.510;6.686;2023-01-27T04:52:47;96218.69;;;-0.20;71.42
57594;BME280;43423;46.510;6.686;2023-01-27T04:55:13;96208.75;;;-0.27;70.96
57594;BME280;43423;46.510;6.686;2023-01-27T04:57:39;96215.00;;;-0.30;70.70
57594;BME280;43423;46.510;6.686;2023-01-27T05:00:05;96218.69;;;-0.20;71.27
57594;BME280;43423;46.510;6.686;2023-01-27T05:02:31;96219.66;;;-0.11;71.31
57594;BME280;43423;46.510;6.686;2023-01-27T05:04:56;96217.50;;;-0.19;71.36
57594;BME280;43423;46.510;6.686;2023-01-27T05:07:23;96221.25;;;-0.13;70.93
57594;BME280;43423;46.510;6.686;2023-01-27T05:09:49;96219.88;;;-0.21;70.95
57594;BME280;43423;46.510;6.686;2023-01-27T05:12:14;96223.38;;;-0.24;70.70
57594;BME280;43423;46.510;6.686;2023-01-27T05:14:40;96224.00;;;-0.17;71.30
57594;BME280;43423;46.510;6.686;2023-01-27T05:17:06;96215.44;;;-0.12;70.66
57594;BME280;43423;46.510;6.686;2023-01-27T05:19:31;96212.41;;;-0.14;70.67
57594;BME280;43423;46.510;6.686;2023-01-27T05:21:57;96221.72;;;-0.18;69.59
57594;BME280;43423;46.510;6.686;2023-01-27T05:24:22;96218.59;;;-0.17;71.00
57594;BME280;43423;46.510;6.686;2023-01-27T05:26:48;96228.53;;;-0.10;70.73
57594;BME280;43423;46.510;6.686;2023-01-27T05:29:13;96230.19;;;-0.16;70.59
57594;BME280;43423;46.510;6.686;2023-01-27T05:31:39;96218.88;;;-0.31;69.69
57594;BME280;43423;46.510;6.686;2023-01-27T05:34:04;96214.28;;;-0.34;70.20
57594;BME280;43423;46.510;6.686;2023-01-27T05:36:30;96223.16;;;-0.34;70.16
57594;BME280;43423;46.510;6.686;2023-01-27T05:38:57;96221.50;;;-0.28;71.01
57594;BME280;43423;46.510;6.686;2023-01-27T05:41:23;96216.81;;;-0.23;70.49
57594;BME280;43423;46.510;6.686;2023-01-27T05:43:53;96218.81;;;-0.28;70.00
57594;BME280;43423;46.510;6.686;2023-01-27T05:46:21;96217.69;;;-0.30;70.39
57594;BME280;43423;46.510;6.686;2023-01-27T05:48:49;96214.16;;;-0.27;70.75
57594;BME280;43423;46.510;6.686;2023-01-27T05:51:16;96219.44;;;-0.20;70.69
57594;BME280;43423;46.510;6.686;2023-01-27T05:53:43;96213.41;;;-0.28;69.73
57594;BME280;43423;46.510;6.686;2023-01-27T05:56:12;96215.47;;;-0.35;70.11
57594;BME280;43423;46.510;6.686;2023-01-27T05:58:38;96216.34;;;-0.42;69.80
57594;BME280;43423;46.510;6.686;2023-01-27T06:03:32;96215.03;;;-0.34;69.85
57594;BME280;43423;46.510;6.686;2023-01-27T06:05:58;96221.28;;;-0.37;69.49
57594;BME280;43423;46.510;6.686;2023-01-27T06:08:24;96213.59;;;-0.38;69.16
57594;BME280;43423;46.510;6.686;2023-01-27T06:10:51;96219.38;;;-0.40;69.66
57594;BME280;43423;46.510;6.686;2023-01-27T06:13:18;96222.69;;;-0.29;69.53
57594;BME280;43423;46.510;6.686;2023-01-27T06:15:45;96221.59;;;-0.31;69.91
57594;BME280;43423;46.510;6.686;2023-01-27T06:18:11;96227.44;;;-0.36;69.26
57594;BME280;43423;46.510;6.686;2023-01-27T06:20:38;96230.56;;;-0.38;69.46
57594;BME280;43423;46.510;6.686;2023-01-27T06:23:04;96235.47;;;-0.33;69.76
57594;BME280;43423;46.510;6.686;2023-01-27T06:25:34;96233.84;;;-0.26;69.84
57594;BME280;43423;46.510;6.686;2023-01-27T06:28:00;96231.97;;;-0.30;69.22
57594;BME280;43423;46.510;6.686;2023-01-27T06:30:26;96235.22;;;-0.38;70.22
57594;BME280;43423;46.510;6.686;2023-01-27T06:32:51;96238.94;;;-0.32;69.65
57594;BME280;43423;46.510;6.686;2023-01-27T06:35:17;96205.53;;;-0.65;69.36
57594;BME280;43423;46.510;6.686;2023-01-27T06:37:42;96241.59;;;-0.52;69.71
57594;BME280;43423;46.510;6.686;2023-01-27T06:40:08;96227.63;;;-0.47;69.77
57594;BME280;43423;46.510;6.686;2023-01-27T06:42:34;96233.28;;;-0.38;69.55
57594;BME280;43423;46.510;6.686;2023-01-27T06:45:00;96234.84;;;-0.40;69.57
57594;BME280;43423;46.510;6.686;2023-01-27T06:47:25;96236.72;;;-0.37;70.30
57594;BME280;43423;46.510;6.686;2023-01-27T06:49:51;96230.63;;;-0.41;69.69
57594;BME280;43423;46.510;6.686;2023-01-27T06:52:16;96236.44;;;-0.43;70.10
57594;BME280;43423;46.510;6.686;2023-01-27T06:54:42;96223.56;;;-0.35;69.54
57594;BME280;43423;46.510;6.686;2023-01-27T06:57:08;96230.78;;;-0.29;69.30
57594;BME280;43423;46.510;6.686;2023-01-27T06:59:34;96236.72;;;-0.37;69.62
57594;BME280;43423;46.510;6.686;2023-01-27T07:01:59;96234.16;;;-0.44;68.42
57594;BME280;43423;46.510;6.686;2023-01-27T07:04:25;96240.53;;;-0.35;69.53
57594;BME280;43423;46.510;6.686;2023-01-27T07:06:51;96237.78;;;-0.31;69.15
57594;BME280;43423;46.510;6.686;2023-01-27T07:09:16;96232.78;;;-0.33;69.00
57594;BME280;43423;46.510;6.686;2023-01-27T07:11:42;96231.22;;;-0.30;69.16
57594;BME280;43423;46.510;6.686;2023-01-27T07:14:08;96234.94;;;-0.24;68.61
57594;BME280;43423;46.510;6.686;2023-01-27T07:16:34;96232.78;;;-0.33;67.95
57594;BME280;43423;46.510;6.686;2023-01-27T07:19:00;96231.97;;;-0.30;68.56
57594;BME280;43423;46.510;6.686;2023-01-27T07:21:25;96223.16;;;-0.34;68.33
57594;BME280;43423;46.510;6.686;2023-01-27T07:23:51;96228.56;;;-0.34;68.48
57594;BME280;43423;46.510;6.686;2023-01-27T07:26:16;96231.03;;;-0.43;68.14
57594;BME280;43423;46.510;6.686;2023-01-27T07:28:42;96238.56;;;-0.54;67.97
57594;BME280;43423;46.510;6.686;2023-01-27T07:31:07;96226.56;;;-0.53;69.16
57594;BME280;43423;46.510;6.686;2023-01-27T07:33:33;96232.28;;;-0.47;68.39
57594;BME280;43423;46.510;6.686;2023-01-27T07:35:58;96232.50;;;-0.38;69.23
57594;BME280;43423;46.510;6.686;2023-01-27T07:38:24;96238.19;;;-0.33;69.11
57594;BME280;43423;46.510;6.686;2023-01-27T07:40:49;96238.25;;;-0.36;67.99
57594;BME280;43423;46.510;6.686;2023-01-27T07:43:15;96241.00;;;-0.40;67.71
57594;BME280;43423;46.510;6.686;2023-01-27T07:45:40;96233.28;;;-0.38;68.34
57594;BME280;43423;46.510;6.686;2023-01-27T07:48:07;96236.78;;;-0.41;67.93
57594;BME280;43423;46.510;6.686;2023-01-27T07:50:33;96232.97;;;-0.43;67.39
57594;BME280;43423;46.510;6.686;2023-01-27T07:53:01;96227.50;;;-0.40;67.71
57594;BME280;43423;46.510;6.686;2023-01-27T07:55:28;96243.59;;;-0.33;67.30
57594;BME280;43423;46.510;6.686;2023-01-27T07:57:55;96245.94;;;-0.35;68.32
57594;BME280;43423;46.510;6.686;2023-01-27T08:00:21;96241.91;;;-0.46;67.17
57594;BME280;43423;46.510;6.686;2023-01-27T08:02:50;96236.00;;;-0.41;68.12
57594;BME280;43423;46.510;6.686;2023-01-27T08:05:16;96240.06;;;-0.30;68.23
57594;BME280;43423;46.510;6.686;2023-01-27T08:07:42;96232.72;;;-0.29;67.23
57594;BME280;43423;46.510;6.686;2023-01-27T08:10:08;96232.97;;;-0.43;66.52
57594;BME280;43423;46.510;6.686;2023-01-27T08:12:34;96231.34;;;-0.37;66.84
57594;BME280;43423;46.510;6.686;2023-01-27T08:15:00;96222.03;;;-0.36;67.60
57594;BME280;43423;46.510;6.686;2023-01-27T08:17:25;96232.66;;;-0.25;67.08
57594;BME280;43423;46.510;6.686;2023-01-27T08:19:51;96229.19;;;-0.26;66.14
57594;BME280;43423;46.510;6.686;2023-01-27T08:22:17;96230.25;;;-0.20;66.40
57594;BME280;43423;46.510;6.686;2023-01-27T08:24:46;96239.59;;;-0.24;66.88
57594;BME280;43423;46.510;6.686;2023-01-27T08:27:11;96233.50;;;-0.29;66.39
57594;BME280;43423;46.510;6.686;2023-01-27T08:29:37;96233.31;;;-0.18;66.33
57594;BME280;43423;46.510;6.686;2023-01-27T08:32:03;96247.34;;;-0.26;66.27
57594;BME280;43423;46.510;6.686;2023-01-27T08:34:28;96235.13;;;-0.35;66.56
57594;BME280;43423;46.510;6.686;2023-01-27T08:36:54;96242.81;;;-0.33;65.46
57594;BME280;43423;46.510;6.686;2023-01-27T08:39:19;96238.94;;;-0.32;66.18
57594;BME280;43423;46.510;6.686;2023-01-27T08:41:45;96234.34;;;-0.32;67.02
57594;BME280;43423;46.510;6.686;2023-01-27T08:44:10;96250.41;;;-0.24;66.98
57594;BME280;43423;46.510;6.686;2023-01-27T08:46:36;96252.59;;;-0.16;66.43
57594;BME280;43423;46.510;6.686;2023-01-27T08:49:01;96259.56;;;-0.18;66.45
57594;BME280;43423;46.510;6.686;2023-01-27T08:51:27;96259.91;;;-0.16;65.86
57594;BME280;43423;46.510;6.686;2023-01-27T08:53:53;96258.16;;;-0.26;65.93
57594;BME280;43423;46.510;6.686;2023-01-27T08:56:18;96257.28;;;-0.20;66.23
57594;BME280;43423;46.510;6.686;2023-01-27T08:58:44;96266.44;;;-0.14;65.72
57594;BME280;43423;46.510;6.686;2023-01-27T09:01:12;96247.34;;;-0.26;65.43
57594;BME280;43423;46.510;6.686;2023-01-27T09:03:37;96261.19;;;-0.24;66.04
57594;BME280;43423;46.510;6.686;2023-01-27T09:06:04;96257.19;;;-0.16;65.86
57594;BME280;43423;46.510;6.686;2023-01-27T09:08:30;96263.91;;;-0.24;65.84
57594;BME280;43423;46.510;6.686;2023-01-27T09:10:56;96268.16;;;-0.23;65.33
57594;BME280;43423;46.510;6.686;2023-01-27T09:13:21;96267.38;;;-0.24;65.24
57594;BME280;43423;46.510;6.686;2023-01-27T09:15:50;96261.09;;;-0.41;65.65
57594;BME280;43423;46.510;6.686;2023-01-27T09:18:16;96258.75;;;-0.39;66.50
57594;BME280;43423;46.510;6.686;2023-01-27T09:20:42;96268.63;;;-0.29;67.22
57594;BME280;43423;46.510;6.686;2023-01-27T09:23:07;96263.91;;;-0.24;66.12
57594;BME280;43423;46.510;6.686;2023-01-27T09:25:33;96267.38;;;-0.24;66.42
57594;BME280;43423;46.510;6.686;2023-01-27T09:27:59;96251.94;;;-0.23;65.38
57594;BME280;43423;46.510;6.686;2023-01-27T09:30:26;96260.28;;;-0.14;66.08
57594;BME280;43423;46.510;6.686;2023-01-27T09:32:52;96260.97;;;-0.10;66.31
57594;BME280;43423;46.510;6.686;2023-01-27T09:35:18;96260.50;;;-0.05;66.13
57594;BME280;43423;46.510;6.686;2023-01-27T09:37:55;96265.94;;;-0.09;65.82
57594;BME280;43423;46.510;6.686;2023-01-27T09:43:36;96270.47;;;-0.02;66.89
57594;BME280;43423;46.510;6.686;2023-01-27T09:46:44;96269.25;;;0.03;66.83
57594;BME280;43423;46.510;6.686;2023-01-27T09:49:37;96271.13;;;0.06;66.42
57594;BME280;43423;46.510;6.686;2023-01-27T09:52:13;96261.19;;;-0.01;66.69
57594;BME280;43423;46.510;6.686;2023-01-27T09:54:56;96270.84;;;0.00;66.25
57594;BME280;43423;46.510;6.686;2023-01-27T10:12:12;96265.03;;;0.02;66.19
57594;BME280;43423;46.510;6.686;2023-01-27T10:23:19;96285.38;;;0.06;65.59
57594;BME280;43423;46.510;6.686;2023-01-27T10:26:08;96284.09;;;0.14;66.01
57594;BME280;43423;46.510;6.686;2023-01-27T10:28:37;96282.16;;;0.15;66.07
57594;BME280;43423;46.510;6.686;2023-01-27T10:31:09;96271.84;;;0.30;66.37
57594;BME280;43423;46.510;6.686;2023-01-27T10:33:50;96273.72;;;0.33;66.04
57594;BME280;43423;46.510;6.686;2023-01-27T10:36:45;96259.97;;;0.23;65.75
57594;BME280;43423;46.510;6.686;2023-01-27T10:44:56;96249.31;;;0.16;65.38
57594;BME280;43423;46.510;6.686;2023-01-27T10:47:45;96258.44;;;0.22;65.29
57594;BME280;43423;46.510;6.686;2023-01-27T10:50:21;96249.66;;;0.18;64.59
57594;BME280;43423;46.510;6.686;2023-01-27T10:55:54;96238.69;;;0.25;65.32
57594;BME280;43423;46.510;6.686;2023-01-27T10:58:32;96240.16;;;0.30;65.37
57594;BME280;43423;46.510;6.686;2023-01-27T11:01:04;96233.84;;;0.37;66.16
57594;BME280;43423;46.510;6.686;2023-01-27T11:03:35;96231.75;;;0.44;65.70
57594;BME280;43423;46.510;6.686;2023-01-27T11:06:34;96236.25;;;0.51;65.30
57594;BME280;43423;46.510;6.686;2023-01-27T11:09:16;96239.59;;;0.59;65.57
57594;BME280;43423;46.510;6.686;2023-01-27T11:11:48;96229.53;;;0.59;65.48
57594;BME280;43423;46.510;6.686;2023-01-27T11:14:27;96235.41;;;0.54;65.23
57594;BME280;43423;46.510;6.686;2023-01-27T11:17:02;96232.16;;;0.63;64.94
57594;BME280;43423;46.510;6.686;2023-01-27T11:22:22;96217.34;;;0.51;65.06
57594;BME280;43423;46.510;6.686;2023-01-27T11:25:28;96218.19;;;0.48;65.26
57594;BME280;43423;46.510;6.686;2023-01-27T11:28:13;96220.22;;;0.60;66.06
57594;BME280;43423;46.510;6.686;2023-01-27T11:30:50;96225.84;;;0.69;64.94
57594;BME280;43423;46.510;6.686;2023-01-27T11:33:22;96221.00;;;0.61;65.26
57594;BME280;43423;46.510;6.686;2023-01-27T11:35:51;96209.06;;;0.38;65.42
57594;BME280;43423;46.510;6.686;2023-01-27T11:38:19;96219.69;;;0.49;65.50
57594;BME280;43423;46.510;6.686;2023-01-27T11:40:47;96206.50;;;0.51;65.41
57594;BME280;43423;46.510;6.686;2023-01-27T11:43:20;96211.00;;;0.58;65.75
57594;BME280;43423;46.510;6.686;2023-01-27T11:45:49;96204.94;;;0.34;65.55
57594;BME280;43423;46.510;6.686;2023-01-27T11:48:18;96189.66;;;0.43;65.36
57594;BME280;43423;46.510;6.686;2023-01-27T11:50:44;96203.47;;;0.49;65.71
57594;BME280;43423;46.510;6.686;2023-01-27T11:53:20;96197.28;;;0.48;65.52
57594;BME280;43423;46.510;6.686;2023-01-27T11:55:50;96197.69;;;0.47;65.58
57594;BME280;43423;46.510;6.686;2023-01-27T11:58:31;96193.41;;;0.49;64.92
57594;BME280;43423;46.510;6.686;2023-01-27T12:01:02;96178.97;;;0.36;66.29
57594;BME280;43423;46.510;6.686;2023-01-27T12:12:29;96188.19;;;0.39;65.57
57594;BME280;43423;46.510;6.686;2023-01-27T12:14:57;96186.75;;;0.34;66.27
57594;BME280;43423;46.510;6.686;2023-01-27T12:17:30;96185.44;;;0.42;66.16
57594;BME280;43423;46.510;6.686;2023-01-27T12:20:02;96182.50;;;0.53;66.32
57594;BME280;43423;46.510;6.686;2023-01-27T12:22:36;96179.38;;;0.54;66.28
57594;BME280;43423;46.510;6.686;2023-01-27T12:25:06;96187.84;;;0.57;65.63
57594;BME280;43423;46.510;6.686;2023-01-27T12:27:40;96168.63;;;0.51;66.16
57594;BME280;43423;46.510;6.686;2023-01-27T12:30:25;96170.16;;;0.88;66.03
57594;BME280;43423;46.510;6.686;2023-01-27T12:32:52;96164.63;;;1.40;65.64
57594;BME280;43423;46.510;6.686;2023-01-27T12:35:20;96171.69;;;1.83;63.99
57594;BME280;43423;46.510;6.686;2023-01-27T12:37:48;96169.63;;;1.58;63.05
57594;BME280;43423;46.510;6.686;2023-01-27T12:40:23;96168.53;;;1.39;63.61
57594;BME280;43423;46.510;6.686;2023-01-27T12:43:10;96168.03;;;1.45;63.50
57594;BME280;43423;46.510;6.686;2023-01-27T12:45:37;96163.66;;;1.34;63.34
57594;BME280;43423;46.510;6.686;2023-01-27T12:50:31;96163.38;;;1.90;61.93
57594;BME280;43423;46.510;6.686;2023-01-27T12:53:09;96162.38;;;1.84;61.53
57594;BME280;43423;46.510;6.686;2023-01-27T12:55:43;96164.63;;;2.57;62.06
57594;BME280;43423;46.510;6.686;2023-01-27T13:03:53;96163.63;;;2.50;60.70
57594;BME280;43423;46.510;6.686;2023-01-27T13:06:28;96161.91;;;3.07;60.82
57594;BME280;43423;46.510;6.686;2023-01-27T13:08:56;96171.69;;;3.18;58.82
57594;BME280;43423;46.510;6.686;2023-01-27T13:11:30;96154.09;;;2.84;59.34
57594;BME280;43423;46.510;6.686;2023-01-27T13:13:57;96149.75;;;2.99;59.80
57594;BME280;43423;46.510;6.686;2023-01-27T13:16:28;96161.81;;;2.73;59.47
57594;BME280;43423;46.510;6.686;2023-01-27T13:18:57;96157.44;;;2.50;62.23
57594;BME280;43423;46.510;6.686;2023-01-27T13:21:26;96163.75;;;2.60;61.07
57594;BME280;43423;46.510;6.686;2023-01-27T13:23:54;96180.28;;;2.91;60.51
57594;BME280;43423;46.510;6.686;2023-01-27T13:26:24;96172.88;;;2.91;58.72
57594;BME280;43423;46.510;6.686;2023-01-27T13:29:13;96180.81;;;3.24;58.68
57594;BME280;43423;46.510;6.686;2023-01-27T13:31:47;96174.50;;;3.14;59.03
57594;BME280;43423;46.510;6.686;2023-01-27T13:37:07;96181.91;;;3.26;57.31
57594;BME280;43423;46.510;6.686;2023-01-27T13:40:17;96181.09;;;3.51;59.41
57594;BME280;43423;46.510;6.686;2023-01-27T13:42:54;96185.47;;;3.36;58.06
57594;BME280;43423;46.510;6.686;2023-01-27T13:45:22;96182.75;;;3.23;58.25
57594;BME280;43423;46.510;6.686;2023-01-27T13:47:53;96183.00;;;2.78;60.07
57594;BME280;43423;46.510;6.686;2023-01-27T13:52:56;96177.00;;;3.81;59.07
57594;BME280;43423;46.510;6.686;2023-01-27T13:55:34;96192.66;;;3.77;57.91
57594;BME280;43423;46.510;6.686;2023-01-27T13:58:30;96184.25;;;3.50;58.94
57594;BME280;43423;46.510;6.686;2023-01-27T14:01:09;96184.50;;;3.30;60.65
57594;BME280;43423;46.510;6.686;2023-01-27T14:06:44;96186.31;;;3.46;59.33
57594;BME280;43423;46.510;6.686;2023-01-27T14:09:26;96181.63;;;3.59;58.99
57594;BME280;43423;46.510;6.686;2023-01-27T14:17:36;96209.41;;;3.03;60.61
57594;BME280;43423;46.510;6.686;2023-01-27T14:23:17;96214.16;;;2.73;61.71
57594;BME280;43423;46.510;6.686;2023-01-27T14:31:40;96204.78;;;2.20;63.34
57594;BME280;43423;46.510;6.686;2023-01-27T14:34:34;96215.38;;;2.43;62.61
57594;BME280;43423;46.510;6.686;2023-01-27T14:37:27;96208.63;;;2.35;62.68
57594;BME280;43423;46.510;6.686;2023-01-27T14:40:19;96212.84;;;2.23;63.01
57594;BME280;43423;46.510;6.686;2023-01-27T14:42:53;96213.56;;;1.82;63.32